sensor_id;sensor_type;location;lat;lon;timestamp;pressure;altitude;pressure_sealevel;temperature;humidity
48346;BME280;34159;37.368;127.108;2024-03-08T00:01:13;100655.84;;;23.18;19.29
48346;BME280;34159;37.368;127.108;2024-03-08T00:03:43;100661.34;;;23.15;19.10
48346;BME280;34159;37.368;127.108;2024-03-08T00:06:12;100655.06;;;23.01;18.97
48346;BME280;34159;37.368;127.108;2024-03-08T00:08:45;100663.00;;;22.87;19.09
48346;BME280;34159;37.368;127.108;2024-03-08T00:11:15;100666.56;;;22.72;19.37
48346;BME280;34159;37.368;127.108;2024-03-08T00:13:45;100662.38;;;22.68;19.47
48346;BME280;34159;37.368;127.108;2024-03-08T00:16:15;100667.31;;;22.60;19.19
48346;BME280;34159;37.368;127.108;2024-03-08T00:18:48;100667.66;;;22.53;19.30
48346;BME280;34159;37.368;127.108;2024-03-08T00:21:18;100665.34;;;22.47;19.59
48346;BME280;34159;37.368;127.108;2024-03-08T00:23:48;100665.78;;;22.40;19.45
48346;BME280;34159;37.368;127.108;2024-03-08T00:26:18;100669.50;;;22.37;19.45
48346;BME280;34159;37.368;127.108;2024-03-08T00:28:51;100665.66;;;22.27;19.48
48346;BME280;34159;37.368;127.108;2024-03-08T00:31:21;100678.16;;;22.25;19.67
48346;BME280;34159;37.368;127.108;2024-03-08T00:33:50;100668.66;;;22.21;19.56
48346;BME280;34159;37.368;127.108;2024-03-08T00:36:21;100673.22;;;22.19;19.67
48346;BME280;34159;37.368;127.108;2024-03-08T00:38:51;100675.47;;;22.11;19.79
48346;BME280;34159;37.368;127.108;2024-03-08T00:41:21;100668.50;;;22.08;19.59
48346;BME280;34159;37.368;127.108;2024-03-08T00:43:51;100670.47;;;22.05;20.08
48346;BME280;34159;37.368;127.108;2024-03-08T00:46:22;100680.31;;;22.03;19.63
48346;BME280;34159;37.368;127.108;2024-03-08T00:48:52;100669.94;;;21.98;19.84
48346;BME280;34159;37.368;127.108;2024-03-08T00:51:22;100669.94;;;21.98;19.94
48346;BME280;34159;37.368;127.108;2024-03-08T00:53:52;100670.59;;;22.02;19.95
48346;BME280;34159;37.368;127.108;2024-03-08T00:56:24;100672.59;;;21.98;19.80
48346;BME280;34159;37.368;127.108;2024-03-08T00:58:54;100669.00;;;21.99;19.69
48346;BME280;34159;37.368;127.108;2024-03-08T01:01:25;100678.94;;;21.95;19.75
48346;BME280;34159;37.368;127.108;2024-03-08T01:03:55;100668.47;;;21.92;19.92
48346;BME280;34159;37.368;127.108;2024-03-08T01:06:29;100677.56;;;21.88;20.26
48346;BME280;34159;37.368;127.108;2024-03-08T01:09:02;100669.94;;;21.82;19.80
48346;BME280;34159;37.368;127.108;2024-03-08T01:11:32;100661.03;;;21.83;19.84
48346;BME280;34159;37.368;127.108;2024-03-08T01:14:03;100658.31;;;21.85;19.59
48346;BME280;34159;37.368;127.108;2024-03-08T01:16:33;100672.69;;;21.81;19.85
48346;BME280;34159;37.368;127.108;2024-03-08T01:19:02;100659.09;;;21.87;19.97
48346;BME280;34159;37.368;127.108;2024-03-08T01:21:33;100663.28;;;21.91;19.93
48346;BME280;34159;37.368;127.108;2024-03-08T01:24:04;100665.41;;;22.00;20.14
48346;BME280;34159;37.368;127.108;2024-03-08T01:26:40;100657.19;;;21.89;19.99
48346;BME280;34159;37.368;127.108;2024-03-08T01:29:10;100656.50;;;21.85;20.38
48346;BME280;34159;37.368;127.108;2024-03-08T01:31:42;100649.50;;;21.84;20.28
48346;BME280;34159;37.368;127.108;2024-03-08T01:34:15;100662.66;;;21.86;20.36
48346;BME280;34159;37.368;127.108;2024-03-08T01:36:45;100663.50;;;21.86;20.09
48346;BME280;34159;37.368;127.108;2024-03-08T01:39:15;100650.25;;;21.86;19.88
48346;BME280;34159;37.368;127.108;2024-03-08T01:41:46;100651.19;;;21.85;20.25
48346;BME280;34159;37.368;127.108;2024-03-08T01:44:15;100650.19;;;21.88;20.17
48346;BME280;34159;37.368;127.108;2024-03-08T01:46:55;100644.88;;;21.88;20.06
48346;BME280;34159;37.368;127.108;2024-03-08T01:49:26;100650.09;;;21.89;19.97
48346;BME280;34159;37.368;127.108;2024-03-08T01:51:56;100642.47;;;21.83;20.03
48346;BME280;34159;37.368;127.108;2024-03-08T01:54:28;100647.44;;;21.89;20.01
48346;BME280;34159;37.368;127.108;2024-03-08T01:56:59;100639.31;;;21.92;20.20
48346;BME280;34159;37.368;127.108;2024-03-08T01:59:29;100634.94;;;21.91;20.29
48346;BME280;34159;37.368;127.108;2024-03-08T02:02:04;100635.88;;;21.90;19.91
48346;BME280;34159;37.368;127.108;2024-03-08T02:04:38;100648.31;;;21.90;20.28
48346;BME280;34159;37.368;127.108;2024-03-08T02:07:12;100636.84;;;21.89;20.41
48346;BME280;34159;37.368;127.108;2024-03-08T02:09:48;100637.44;;;21.94;20.28
48346;BME280;34159;37.368;127.108;2024-03-08T02:12:25;100637.50;;;21.93;19.91
48346;BME280;34159;37.368;127.108;2024-03-08T02:14:57;100635.56;;;21.96;20.33
48346;BME280;34159;37.368;127.108;2024-03-08T02:17:27;100622.00;;;22.01;20.14
48346;BME280;34159;37.368;127.108;2024-03-08T02:20:10;100610.28;;;22.05;20.35
48346;BME280;34159;37.368;127.108;2024-03-08T02:22:42;100623.41;;;22.08;19.98
48346;BME280;34159;37.368;127.108;2024-03-08T02:25:15;100624.19;;;22.10;20.07
48346;BME280;34159;37.368;127.108;2024-03-08T02:27:48;100610.03;;;22.10;20.00
48346;BME280;34159;37.368;127.108;2024-03-08T02:30:18;100626.31;;;22.19;19.78
48346;BME280;34159;37.368;127.108;2024-03-08T02:32:49;100615.00;;;22.46;19.86
48346;BME280;34159;37.368;127.108;2024-03-08T02:35:19;100612.25;;;22.47;19.64
48346;BME280;34159;37.368;127.108;2024-03-08T02:37:49;100604.69;;;22.41;19.73
48346;BME280;34159;37.368;127.108;2024-03-08T02:40:18;100607.72;;;22.49;19.24
48346;BME280;34159;37.368;127.108;2024-03-08T02:42:48;100612.44;;;22.44;19.43
48346;BME280;34159;37.368;127.108;2024-03-08T02:45:18;100600.41;;;22.53;19.95
48346;BME280;34159;37.368;127.108;2024-03-08T02:47:48;100602.72;;;22.59;19.36
48346;BME280;34159;37.368;127.108;2024-03-08T02:50:20;100597.50;;;22.58;19.63
48346;BME280;34159;37.368;127.108;2024-03-08T02:52:51;100595.91;;;22.69;19.65
48346;BME280;34159;37.368;127.108;2024-03-08T02:55:21;100594.31;;;22.81;19.66
48346;BME280;34159;37.368;127.108;2024-03-08T02:57:51;100597.56;;;22.86;19.66
48346;BME280;34159;37.368;127.108;2024-03-08T03:00:24;100596.06;;;22.96;19.78
48346;BME280;34159;37.368;127.108;2024-03-08T03:02:54;100590.28;;;23.04;19.45
48346;BME280;34159;37.368;127.108;2024-03-08T03:05:24;100594.22;;;23.11;19.42
48346;BME280;34159;37.368;127.108;2024-03-08T03:07:54;100588.53;;;23.17;19.53
48346;BME280;34159;37.368;127.108;2024-03-08T03:10:26;100593.00;;;23.17;19.83
48346;BME280;34159;37.368;127.108;2024-03-08T03:12:56;100592.41;;;23.26;19.37
48346;BME280;34159;37.368;127.108;2024-03-08T03:15:30;100594.63;;;23.19;19.66
48346;BME280;34159;37.368;127.108;2024-03-08T03:17:59;100590.06;;;23.21;19.41
48346;BME280;34159;37.368;127.108;2024-03-08T03:20:29;100583.53;;;23.27;19.40
48346;BME280;34159;37.368;127.108;2024-03-08T03:23:06;100584.81;;;23.34;19.42
48346;BME280;34159;37.368;127.108;2024-03-08T03:25:37;100581.84;;;23.53;19.11
48346;BME280;34159;37.368;127.108;2024-03-08T03:28:10;100579.75;;;23.58;19.25
48346;BME280;34159;37.368;127.108;2024-03-08T03:30:46;100580.44;;;23.61;19.42
48346;BME280;34159;37.368;127.108;2024-03-08T03:33:16;100572.34;;;23.63;19.27
48346;BME280;34159;37.368;127.108;2024-03-08T03:35:49;100583.66;;;23.67;18.92
48346;BME280;34159;37.368;127.108;2024-03-08T03:38:20;100571.84;;;23.71;18.84
48346;BME280;34159;37.368;127.108;2024-03-08T03:40:55;100567.22;;;23.87;18.87
48346;BME280;34159;37.368;127.108;2024-03-08T03:43:26;100573.41;;;23.87;18.91
48346;BME280;34159;37.368;127.108;2024-03-08T03:45:59;100576.53;;;23.94;18.41
48346;BME280;34159;37.368;127.108;2024-03-08T03:48:29;100581.66;;;23.97;18.78
48346;BME280;34159;37.368;127.108;2024-03-08T03:50:59;100581.44;;;24.00;18.95
48346;BME280;34159;37.368;127.108;2024-03-08T03:53:31;100588.34;;;24.03;18.69
48346;BME280;34159;37.368;127.108;2024-03-08T03:56:04;100568.25;;;23.99;18.53
48346;BME280;34159;37.368;127.108;2024-03-08T03:58:36;100567.97;;;23.89;18.36
48346;BME280;34159;37.368;127.108;2024-03-08T04:01:06;100570.84;;;23.86;18.66
48346;BME280;34159;37.368;127.108;2024-03-08T04:03:36;100563.72;;;23.86;18.39
48346;BME280;34159;37.368;127.108;2024-03-08T04:06:06;100566.19;;;23.89;18.62
48346;BME280;34159;37.368;127.108;2024-03-08T04:08:36;100567.34;;;23.85;18.60
48346;BME280;34159;37.368;127.108;2024-03-08T04:11:05;100558.84;;;23.93;18.26
48346;BME280;34159;37.368;127.108;2024-03-08T04:13:35;100568.13;;;24.00;18.40
48346;BME280;34159;37.368;127.108;2024-03-08T04:16:05;100561.41;;;23.95;18.48
48346;BME280;34159;37.368;127.108;2024-03-08T04:18:37;100567.38;;;23.98;18.50
48346;BME280;34159;37.368;127.108;2024-03-08T04:21:10;100561.84;;;24.01;18.47
48346;BME280;34159;37.368;127.108;2024-03-08T04:23:40;100566.03;;;24.05;18.57
48346;BME280;34159;37.368;127.108;2024-03-08T04:26:10;100561.63;;;24.04;19.06
48346;BME280;34159;37.368;127.108;2024-03-08T04:28:47;100549.78;;;23.96;18.69
48346;BME280;34159;37.368;127.108;2024-03-08T04:31:17;100558.63;;;23.96;18.34
48346;BME280;34159;37.368;127.108;2024-03-08T04:33:48;100555.91;;;24.10;18.18
48346;BME280;34159;37.368;127.108;2024-03-08T04:36:18;100546.63;;;24.03;18.69
48346;BME280;34159;37.368;127.108;2024-03-08T04:38:48;100544.94;;;24.02;18.49
48346;BME280;34159;37.368;127.108;2024-03-08T04:41:18;100536.50;;;23.96;18.20
48346;BME280;34159;37.368;127.108;2024-03-08T04:43:49;100534.16;;;24.04;18.12
48346;BME280;34159;37.368;127.108;2024-03-08T04:46:19;100529.19;;;23.99;18.59
48346;BME280;34159;37.368;127.108;2024-03-08T04:48:49;100532.56;;;24.01;18.18
48346;BME280;34159;37.368;127.108;2024-03-08T04:51:19;100537.91;;;24.01;18.55
48346;BME280;34159;37.368;127.108;2024-03-08T04:53:48;100549.09;;;24.06;18.50
48346;BME280;34159;37.368;127.108;2024-03-08T04:56:18;100549.22;;;24.05;19.02
48346;BME280;34159;37.368;127.108;2024-03-08T04:58:48;100545.66;;;24.04;18.31
48346;BME280;34159;37.368;127.108;2024-03-08T05:01:18;100535.66;;;23.95;18.98
48346;BME280;34159;37.368;127.108;2024-03-08T05:03:48;100528.84;;;24.04;18.28
48346;BME280;34159;37.368;127.108;2024-03-08T05:06:19;100536.13;;;24.14;18.49
48346;BME280;34159;37.368;127.108;2024-03-08T05:08:49;100524.28;;;24.06;18.41
48346;BME280;34159;37.368;127.108;2024-03-08T05:11:20;100542.81;;;24.07;18.48
48346;BME280;34159;37.368;127.108;2024-03-08T05:13:50;100534.78;;;23.95;18.75
48346;BME280;34159;37.368;127.108;2024-03-08T05:16:21;100539.94;;;23.98;18.73
48346;BME280;34159;37.368;127.108;2024-03-08T05:18:51;100548.66;;;24.00;19.03
48346;BME280;34159;37.368;127.108;2024-03-08T05:21:21;100528.97;;;24.02;18.81
48346;BME280;34159;37.368;127.108;2024-03-08T05:23:51;100548.47;;;24.15;18.76
48346;BME280;34159;37.368;127.108;2024-03-08T05:26:21;100533.88;;;24.08;19.29
48346;BME280;34159;37.368;127.108;2024-03-08T05:28:51;100535.66;;;23.95;18.94
48346;BME280;34159;37.368;127.108;2024-03-08T05:31:21;100541.78;;;23.83;18.75
48346;BME280;34159;37.368;127.108;2024-03-08T05:33:53;100540.44;;;23.90;18.83
48346;BME280;34159;37.368;127.108;2024-03-08T05:36:24;100545.44;;;23.95;18.50
48346;BME280;34159;37.368;127.108;2024-03-08T05:38:57;100540.84;;;23.97;18.55
48346;BME280;34159;37.368;127.108;2024-03-08T05:41:30;100544.69;;;23.93;18.92
48346;BME280;34159;37.368;127.108;2024-03-08T05:44:02;100543.50;;;23.97;19.10
48346;BME280;34159;37.368;127.108;2024-03-08T05:46:32;100545.66;;;24.04;18.54
48346;BME280;34159;37.368;127.108;2024-03-08T05:49:05;100542.06;;;24.05;18.96
48346;BME280;34159;37.368;127.108;2024-03-08T05:51:37;100562.53;;;24.17;19.26
48346;BME280;34159;37.368;127.108;2024-03-08T05:54:12;100546.25;;;24.22;19.08
48346;BME280;34159;37.368;127.108;2024-03-08T05:56:49;100546.16;;;24.24;18.48
48346;BME280;34159;37.368;127.108;2024-03-08T05:59:22;100553.63;;;24.31;18.65
48346;BME280;34159;37.368;127.108;2024-03-08T06:01:55;100563.41;;;24.31;18.56
48346;BME280;34159;37.368;127.108;2024-03-08T06:04:25;100565.63;;;24.24;18.41
48346;BME280;34159;37.368;127.108;2024-03-08T06:06:56;100547.63;;;24.15;19.12
48346;BME280;34159;37.368;127.108;2024-03-08T06:09:27;100539.75;;;24.13;18.84
48346;BME280;34159;37.368;127.108;2024-03-08T06:11:57;100532.66;;;23.87;18.38
48346;BME280;34159;37.368;127.108;2024-03-08T06:14:26;100539.44;;;23.78;18.67
48346;BME280;34159;37.368;127.108;2024-03-08T06:16:56;100538.06;;;23.58;18.46
48346;BME280;34159;37.368;127.108;2024-03-08T06:19:26;100538.44;;;23.52;18.52
48346;BME280;34159;37.368;127.108;2024-03-08T06:21:56;100533.66;;;23.57;19.03
48346;BME280;34159;37.368;127.108;2024-03-08T06:24:25;100544.16;;;23.46;18.55
48346;BME280;34159;37.368;127.108;2024-03-08T06:26:55;100529.16;;;23.45;18.49
48346;BME280;34159;37.368;127.108;2024-03-08T06:29:25;100534.97;;;23.38;18.78
48346;BME280;34159;37.368;127.108;2024-03-08T06:31:58;100526.31;;;23.34;19.17
48346;BME280;34159;37.368;127.108;2024-03-08T06:34:29;100537.91;;;23.33;19.32
48346;BME280;34159;37.368;127.108;2024-03-08T06:36:58;100527.59;;;23.28;18.97
48346;BME280;34159;37.368;127.108;2024-03-08T06:39:29;100534.44;;;23.18;19.16
48346;BME280;34159;37.368;127.108;2024-03-08T06:42:00;100530.66;;;23.08;19.24
48346;BME280;34159;37.368;127.108;2024-03-08T06:44:30;100535.59;;;23.00;19.13
48346;BME280;34159;37.368;127.108;2024-03-08T06:47:00;100532.16;;;22.84;18.83
48346;BME280;34159;37.368;127.108;2024-03-08T06:49:30;100529.97;;;22.76;19.32
48346;BME280;34159;37.368;127.108;2024-03-08T06:52:00;100533.38;;;22.64;19.09
48346;BME280;34159;37.368;127.108;2024-03-08T06:54:30;100532.53;;;22.63;19.23
48346;BME280;34159;37.368;127.108;2024-03-08T06:57:00;100522.47;;;22.54;18.93
48346;BME280;34159;37.368;127.108;2024-03-08T06:59:30;100536.50;;;22.42;19.40
48346;BME280;34159;37.368;127.108;2024-03-08T07:01:59;100532.13;;;22.27;19.40
48346;BME280;34159;37.368;127.108;2024-03-08T07:04:29;100527.16;;;22.20;19.30
48346;BME280;34159;37.368;127.108;2024-03-08T07:07:04;100535.50;;;22.14;19.37
48346;BME280;34159;37.368;127.108;2024-03-08T07:09:36;100522.41;;;22.11;19.41
48346;BME280;34159;37.368;127.108;2024-03-08T07:12:09;100541.22;;;22.07;19.57
48346;BME280;34159;37.368;127.108;2024-03-08T07:14:39;100536.16;;;22.02;19.23
48346;BME280;34159;37.368;127.108;2024-03-08T07:17:14;100548.09;;;21.95;19.60
48346;BME280;34159;37.368;127.108;2024-03-08T07:19:44;100540.31;;;21.92;19.71
48346;BME280;34159;37.368;127.108;2024-03-08T07:22:14;100559.66;;;21.78;19.64
48346;BME280;34159;37.368;127.108;2024-03-08T07:24:44;100545.84;;;21.73;20.00
48346;BME280;34159;37.368;127.108;2024-03-08T07:27:52;100547.88;;;21.68;19.79
48346;BME280;34159;37.368;127.108;2024-03-08T07:30:24;100544.81;;;21.60;19.65
48346;BME280;34159;37.368;127.108;2024-03-08T07:33:13;100554.81;;;21.55;19.41
48346;BME280;34159;37.368;127.108;2024-03-08T07:35:43;100563.03;;;21.50;19.46
48346;BME280;34159;37.368;127.108;2024-03-08T07:38:14;100566.03;;;21.44;19.73
48346;BME280;34159;37.368;127.108;2024-03-08T07:40:46;100566.34;;;21.38;19.64
48346;BME280;34159;37.368;127.108;2024-03-08T07:43:17;100558.50;;;21.36;19.87
48346;BME280;34159;37.368;127.108;2024-03-08T07:45:46;100568.50;;;21.31;19.71
48346;BME280;34159;37.368;127.108;2024-03-08T07:48:16;100562.91;;;21.20;20.16
48346;BME280;34159;37.368;127.108;2024-03-08T07:50:46;100559.53;;;21.17;20.10
48346;BME280;34159;37.368;127.108;2024-03-08T07:53:18;100565.78;;;21.15;20.03
48346;BME280;34159;37.368;127.108;2024-03-08T07:55:48;100570.50;;;21.10;19.58
48346;BME280;34159;37.368;127.108;2024-03-08T07:58:21;100568.09;;;21.06;19.49
48346;BME280;34159;37.368;127.108;2024-03-08T08:00:50;100565.72;;;21.01;19.72
48346;BME280;34159;37.368;127.108;2024-03-08T08:03:20;100567.66;;;20.98;19.61
48346;BME280;34159;37.368;127.108;2024-03-08T08:05:50;100561.91;;;20.90;19.70
48346;BME280;34159;37.368;127.108;2024-03-08T08:08:19;100572.50;;;20.90;19.67
48346;BME280;34159;37.368;127.108;2024-03-08T08:10:49;100570.97;;;20.85;20.04
48346;BME280;34159;37.368;127.108;2024-03-08T08:13:19;100576.66;;;20.78;20.46
48346;BME280;34159;37.368;127.108;2024-03-08T08:15:48;100575.19;;;20.72;20.12
48346;BME280;34159;37.368;127.108;2024-03-08T08:18:18;100584.00;;;20.73;19.80
48346;BME280;34159;37.368;127.108;2024-03-08T08:20:50;100572.88;;;20.66;20.27
48346;BME280;34159;37.368;127.108;2024-03-08T08:23:21;100575.81;;;20.60;20.14
48346;BME280;34159;37.368;127.108;2024-03-08T08:25:55;100584.78;;;20.57;20.49
48346;BME280;34159;37.368;127.108;2024-03-08T08:28:25;100583.22;;;20.53;20.36
48346;BME280;34159;37.368;127.108;2024-03-08T08:30:55;100599.34;;;20.49;20.08
48346;BME280;34159;37.368;127.108;2024-03-08T08:33:24;100594.91;;;20.49;20.66
48346;BME280;34159;37.368;127.108;2024-03-08T08:35:57;100597.84;;;20.43;20.51
48346;BME280;34159;37.368;127.108;2024-03-08T08:38:27;100599.78;;;20.40;20.14
48346;BME280;34159;37.368;127.108;2024-03-08T08:40:57;100606.06;;;20.37;19.95
48346;BME280;34159;37.368;127.108;2024-03-08T08:43:26;100601.03;;;20.33;19.90
48346;BME280;34159;37.368;127.108;2024-03-08T08:45:57;100604.75;;;20.28;20.22
48346;BME280;34159;37.368;127.108;2024-03-08T08:48:27;100612.78;;;20.27;20.59
48346;BME280;34159;37.368;127.108;2024-03-08T08:50:58;100619.09;;;20.24;20.51
48346;BME280;34159;37.368;127.108;2024-03-08T08:53:28;100613.16;;;20.19;19.97
48346;BME280;34159;37.368;127.108;2024-03-08T08:55:58;100623.81;;;20.18;20.06
48346;BME280;34159;37.368;127.108;2024-03-08T08:58:30;100623.09;;;20.14;20.20
48346;BME280;34159;37.368;127.108;2024-03-08T09:01:00;100622.63;;;20.06;20.65
48346;BME280;34159;37.368;127.108;2024-03-08T09:03:33;100634.22;;;20.03;20.42
48346;BME280;34159;37.368;127.108;2024-03-08T09:06:04;100634.28;;;20.02;20.15
48346;BME280;34159;37.368;127.108;2024-03-08T09:08:34;100639.78;;;19.97;20.75
48346;BME280;34159;37.368;127.108;2024-03-08T09:11:04;100643.53;;;19.93;20.54
48346;BME280;34159;37.368;127.108;2024-03-08T09:13:34;100644.50;;;19.91;20.18
48346;BME280;34159;37.368;127.108;2024-03-08T09:16:04;100642.03;;;19.88;20.82
48346;BME280;34159;37.368;127.108;2024-03-08T09:18:36;100652.69;;;19.86;20.93
48346;BME280;34159;37.368;127.108;2024-03-08T09:21:09;100657.25;;;19.83;21.03
48346;BME280;34159;37.368;127.108;2024-03-08T09:23:39;100657.59;;;19.75;20.10
48346;BME280;34159;37.368;127.108;2024-03-08T09:26:10;100657.59;;;19.75;20.75
48346;BME280;34159;37.368;127.108;2024-03-08T09:28:52;100656.06;;;19.71;20.18
48346;BME280;34159;37.368;127.108;2024-03-08T09:31:23;100658.81;;;19.68;20.80
48346;BME280;34159;37.368;127.108;2024-03-08T09:33:53;100671.41;;;19.63;20.42
48346;BME280;34159;37.368;127.108;2024-03-08T09:36:23;100667.09;;;19.60;20.88
48346;BME280;34159;37.368;127.108;2024-03-08T09:38:54;100673.44;;;19.56;20.42
48346;BME280;34159;37.368;127.108;2024-03-08T09:41:23;100679.88;;;19.51;21.19
48346;BME280;34159;37.368;127.108;2024-03-08T09:43:53;100683.44;;;19.49;20.47
48346;BME280;34159;37.368;127.108;2024-03-08T09:46:24;100687.94;;;19.47;20.32
48346;BME280;34159;37.368;127.108;2024-03-08T09:48:56;100687.16;;;19.45;20.63
48346;BME280;34159;37.368;127.108;2024-03-08T09:51:28;100697.00;;;19.42;20.66
48346;BME280;34159;37.368;127.108;2024-03-08T09:53:58;100684.97;;;19.35;21.20
48346;BME280;34159;37.368;127.108;2024-03-08T09:56:39;100694.44;;;19.40;21.07
48346;BME280;34159;37.368;127.108;2024-03-08T09:59:13;100687.63;;;19.35;20.51
48346;BME280;34159;37.368;127.108;2024-03-08T10:01:49;100692.13;;;19.33;21.13
48346;BME280;34159;37.368;127.108;2024-03-08T10:04:20;100695.81;;;19.29;21.16
48346;BME280;34159;37.368;127.108;2024-03-08T10:06:51;100705.53;;;19.28;20.89
48346;BME280;34159;37.368;127.108;2024-03-08T10:09:21;100705.59;;;19.27;20.32
48346;BME280;34159;37.368;127.108;2024-03-08T10:11:57;100711.81;;;19.26;21.19
48346;BME280;34159;37.368;127.108;2024-03-08T10:14:28;100713.00;;;19.18;21.18
48346;BME280;34159;37.368;127.108;2024-03-08T10:17:00;100728.06;;;19.16;20.57
48346;BME280;34159;37.368;127.108;2024-03-08T10:19:30;100730.03;;;19.11;21.04
48346;BME280;34159;37.368;127.108;2024-03-08T10:22:00;100741.69;;;19.07;20.99
48346;BME280;34159;37.368;127.108;2024-03-08T10:24:31;100743.50;;;19.05;20.89
48346;BME280;34159;37.368;127.108;2024-03-08T10:27:06;100749.72;;;19.04;20.90
48346;BME280;34159;37.368;127.108;2024-03-08T10:29:36;100747.34;;;18.98;21.13
48346;BME280;34159;37.368;127.108;2024-03-08T10:32:07;100753.53;;;18.97;21.24
48346;BME280;34159;37.368;127.108;2024-03-08T10:34:37;100764.97;;;18.98;20.67
48346;BME280;34159;37.368;127.108;2024-03-08T10:37:08;100765.09;;;18.95;21.35
48346;BME280;34159;37.368;127.108;2024-03-08T10:39:46;100777.63;;;18.89;21.15
48346;BME280;34159;37.368;127.108;2024-03-08T10:42:23;100781.25;;;18.87;21.22
48346;BME280;34159;37.368;127.108;2024-03-08T10:45:06;100790.03;;;18.87;21.05
48346;BME280;34159;37.368;127.108;2024-03-08T10:47:41;100786.72;;;18.82;21.10
48346;BME280;34159;37.368;127.108;2024-03-08T10:50:20;100786.84;;;18.79;20.42
48346;BME280;34159;37.368;127.108;2024-03-08T10:52:51;100791.28;;;18.79;20.76
48346;BME280;34159;37.368;127.108;2024-03-08T10:55:21;100794.91;;;18.76;21.26
48346;BME280;34159;37.368;127.108;2024-03-08T10:57:57;100794.94;;;18.75;21.06
48346;BME280;34159;37.368;127.108;2024-03-08T11:00:27;100783.66;;;18.71;21.32
48346;BME280;34159;37.368;127.108;2024-03-08T11:02:59;100787.09;;;18.73;21.40
48346;BME280;34159;37.368;127.108;2024-03-08T11:10:51;100785.38;;;18.72;20.82
48346;BME280;34159;37.368;127.108;2024-03-08T11:13:43;100793.56;;;18.64;21.21
48346;BME280;34159;37.368;127.108;2024-03-08T11:19:24;100801.56;;;18.63;21.14
48346;BME280;34159;37.368;127.108;2024-03-08T11:22:02;100801.47;;;18.66;21.03
48346;BME280;34159;37.368;127.108;2024-03-08T11:24:39;100809.47;;;18.63;21.17
48346;BME280;34159;37.368;127.108;2024-03-08T11:27:09;100817.53;;;18.60;20.70
48346;BME280;34159;37.368;127.108;2024-03-08T11:29:39;100822.97;;;18.55;21.59
48346;BME280;34159;37.368;127.108;2024-03-08T11:32:16;100837.88;;;18.56;21.23
48346;BME280;34159;37.368;127.108;2024-03-08T11:34:50;100837.03;;;18.56;21.53
48346;BME280;34159;37.368;127.108;2024-03-08T11:37:21;100840.53;;;18.56;21.12
48346;BME280;34159;37.368;127.108;2024-03-08T11:39:55;100846.88;;;18.51;21.34
48346;BME280;34159;37.368;127.108;2024-03-08T11:42:35;100845.38;;;18.45;21.50
48346;BME280;34159;37.368;127.108;2024-03-08T11:45:09;100841.06;;;18.43;21.28
48346;BME280;34159;37.368;127.108;2024-03-08T11:47:44;100851.53;;;18.44;21.57
48346;BME280;34159;37.368;127.108;2024-03-08T11:50:23;100855.94;;;18.45;21.54
48346;BME280;34159;37.368;127.108;2024-03-08T11:52:53;100860.56;;;18.38;21.67
48346;BME280;34159;37.368;127.108;2024-03-08T11:55:23;100856.94;;;18.41;21.97
48346;BME280;34159;37.368;127.108;2024-03-08T11:58:00;100852.66;;;18.38;21.61
48346;BME280;34159;37.368;127.108;2024-03-08T12:00:31;100854.44;;;18.38;21.68
48346;BME280;34159;37.368;127.108;2024-03-08T12:03:09;100852.59;;;18.40;21.34
48346;BME280;34159;37.368;127.108;2024-03-08T12:05:39;100860.44;;;18.42;21.21
48346;BME280;34159;37.368;127.108;2024-03-08T12:08:09;100855.16;;;18.42;21.19
48346;BME280;34159;37.368;127.108;2024-03-08T12:10:42;100864.28;;;18.33;21.77
48346;BME280;34159;37.368;127.108;2024-03-08T12:13:12;100871.34;;;18.32;21.17
48346;BME280;34159;37.368;127.108;2024-03-08T12:15:43;100878.19;;;18.38;21.33
48346;BME280;34159;37.368;127.108;2024-03-08T12:18:13;100872.34;;;18.30;21.32
48346;BME280;34159;37.368;127.108;2024-03-08T12:20:43;100881.03;;;18.32;21.18
48346;BME280;34159;37.368;127.108;2024-03-08T12:23:18;100876.78;;;18.28;21.11
48346;BME280;34159;37.368;127.108;2024-03-08T12:25:48;100885.47;;;18.31;21.07
48346;BME280;34159;37.368;127.108;2024-03-08T12:28:19;100890.81;;;18.28;21.35
48346;BME280;34159;37.368;127.108;2024-03-08T12:30:51;100900.50;;;18.29;21.45
48346;BME280;34159;37.368;127.108;2024-03-08T12:33:27;100895.31;;;18.26;21.31
48346;BME280;34159;37.368;127.108;2024-03-08T12:35:57;100903.06;;;18.31;21.48
48346;BME280;34159;37.368;127.108;2024-03-08T12:38:30;100904.09;;;18.27;21.09
48346;BME280;34159;37.368;127.108;2024-03-08T12:41:04;100904.50;;;18.16;21.54
48346;BME280;34159;37.368;127.108;2024-03-08T12:43:33;100909.63;;;18.19;21.25
48346;BME280;34159;37.368;127.108;2024-03-08T12:46:03;100913.97;;;18.22;21.27
48346;BME280;34159;37.368;127.108;2024-03-08T12:48:35;100906.13;;;18.19;21.13
48346;BME280;34159;37.368;127.108;2024-03-08T12:51:09;100914.00;;;18.20;21.17
48346;BME280;34159;37.368;127.108;2024-03-08T12:53:39;100916.81;;;18.16;20.93
48346;BME280;34159;37.368;127.108;2024-03-08T12:56:30;100917.81;;;18.12;21.42
48346;BME280;34159;37.368;127.108;2024-03-08T12:59:02;100910.78;;;18.12;21.65
48346;BME280;34159;37.368;127.108;2024-03-08T13:01:32;100918.00;;;18.07;21.14